Time;durP1;ratioP1;P1;durP2;ratioP2;P2;SDS_P1;SDS_P2;PMS_P1;PMS_P2;Temp;Humidity;BMP_temperature;BMP_pressure;BME280_temperature;BME280_humidity;BME280_pressure;Samples;Min_cycle;Max_cycle;Signal;HPM_P1;HPM_P2
2022/04/19 00:02:12;;;;;;;6.22;5.18;;;8.50;93.10;;;;;;5021347;28;20515;-51
2022/04/19 00:04:39;;;;;;;7.63;5.70;;;8.50;93.10;;;;;;5021624;28;20403;-49
2022/04/19 00:07:09;;;;;;;6.75;4.43;;;8.50;93.10;;;;;;5020949;28;20205;-48
2022/04/19 00:09:36;;;;;;;12.15;4.97;;;8.60;93.10;;;;;;5021036;28;20219;-49
2022/04/19 00:12:04;;;;;;;7.30;4.60;;;8.50;93.10;;;;;;5026292;28;20203;-52
2022/04/19 00:14:34;;;;;;;5.32;4.55;;;8.50;93.20;;;;;;5026989;28;20393;-48
2022/04/19 00:17:05;;;;;;;11.10;5.75;;;8.50;93.20;;;;;;5020398;28;20656;-49
2022/04/19 00:19:32;;;;;;;5.55;3.70;;;8.50;92.90;;;;;;5020791;28;20217;-49
2022/04/19 00:22:00;;;;;;;4.70;4.30;;;8.50;92.90;;;;;;5020825;28;20559;-51
2022/04/19 00:24:28;;;;;;;4.32;3.92;;;8.60;92.80;;;;;;5020192;28;20198;-48
2022/04/19 00:26:55;;;;;;;4.38;3.97;;;8.60;93.00;;;;;;5020826;28;20436;-48
2022/04/19 00:29:23;;;;;;;7.70;3.63;;;8.60;93.00;;;;;;5019336;28;20228;-50
2022/04/19 00:31:50;;;;;;;5.88;4.45;;;8.60;93.10;;;;;;5044646;28;20216;-50
2022/04/19 00:34:18;;;;;;;8.50;4.47;;;8.60;93.20;;;;;;5019836;28;20242;-48
2022/04/19 00:36:45;;;;;;;5.15;3.70;;;8.60;93.20;;;;;;5020242;28;20209;-51
2022/04/19 00:39:12;;;;;;;4.95;3.70;;;8.50;93.20;;;;;;5019957;28;20230;-51
2022/04/19 00:41:40;;;;;;;7.07;4.45;;;8.60;93.30;;;;;;5020000;28;20204;-51
2022/04/19 00:44:07;;;;;;;6.28;4.20;;;8.50;93.50;;;;;;5019301;28;20567;-49
2022/04/19 00:46:35;;;;;;;5.43;4.38;;;8.50;93.60;;;;;;5019611;28;20230;-51
2022/04/19 00:49:02;;;;;;;7.20;4.22;;;8.50;93.70;;;;;;5020004;28;20217;-51
2022/04/19 00:51:31;;;;;;;5.20;4.43;;;8.40;93.80;;;;;;5019947;28;20312;-51
2022/04/19 00:53:59;;;;;;;5.85;4.40;;;8.40;94.00;;;;;;5019721;28;20198;-48
2022/04/19 00:56:29;;;;;;;8.48;4.30;;;8.40;94.10;;;;;;5019682;28;20239;-48
2022/04/19 00:58:56;;;;;;;6.53;4.65;;;8.40;94.20;;;;;;5019955;28;20339;-49
2022/04/19 01:01:23;;;;;;;5.18;4.28;;;8.30;94.40;;;;;;5019680;28;20201;-50
2022/04/19 01:03:50;;;;;;;6.55;4.22;;;8.20;94.80;;;;;;5019474;28;20209;-48
2022/04/19 01:06:18;;;;;;;6.25;3.85;;;8.20;94.90;;;;;;5019071;28;20563;-50
2022/04/19 01:08:45;;;;;;;8.07;4.90;;;8.10;95.40;;;;;;5020127;28;20217;-48
2022/04/19 01:14:03;;;;;;;5.78;4.30;;;8.00;95.60;;;;;;5019574;28;20196;-50
2022/04/19 01:16:30;;;;;;;3.90;2.92;;;7.90;95.90;;;;;;5019349;28;20205;-49
2022/04/19 01:18:58;;;;;;;6.85;4.55;;;7.80;96.40;;;;;;5019632;28;20270;-49
2022/04/19 01:21:54;;;;;;;6.18;4.30;;;7.70;96.70;;;;;;5019788;28;20200;-48
2022/04/19 01:24:24;;;;;;;5.63;3.70;;;7.70;97.00;;;;;;5024975;28;20243;-49
2022/04/19 01:27:03;;;;;;;5.53;3.97;;;7.60;97.60;;;;;;5029189;28;20220;-51
2022/04/19 01:29:30;;;;;;;7.47;4.95;;;7.60;97.80;;;;;;5029489;28;20224;-51
2022/04/19 01:32:05;;;;;;;9.00;4.50;;;7.60;98.10;;;;;;5029647;28;20256;-52
2022/04/19 01:34:32;;;;;;;8.35;4.82;;;7.50;98.50;;;;;;5028201;28;20500;-51
2022/04/19 01:37:00;;;;;;;5.85;4.10;;;7.50;99.10;;;;;;5027989;28;20507;-52
2022/04/19 01:42:13;;;;;;;12.57;4.68;;;7.50;99.50;;;;;;5019878;28;20216;-48
2022/04/19 01:44:41;;;;;;;8.80;3.72;;;7.50;99.60;;;;;;5019395;28;20200;-52
2022/04/19 01:47:08;;;;;;;4.10;3.63;;;7.60;99.60;;;;;;5019050;28;20267;-48
2022/04/19 01:49:36;;;;;;;6.68;4.68;;;7.60;99.40;;;;;;5030910;28;20273;-51
2022/04/19 01:52:04;;;;;;;6.20;4.47;;;7.60;99.60;;;;;;5050937;28;20196;-49
2022/04/19 01:54:33;;;;;;;9.20;3.95;;;7.60;99.60;;;;;;5058980;28;20200;-50
2022/04/19 01:57:00;;;;;;;6.28;5.00;;;7.60;99.90;;;;;;5060063;28;20203;-48
2022/04/19 01:59:28;;;;;;;4.25;3.60;;;7.60;99.90;;;;;;5062631;28;20227;-50
2022/04/19 02:01:55;;;;;;;7.00;4.50;;;7.60;99.90;;;;;;5063748;28;20435;-50
2022/04/19 02:04:22;;;;;;;5.75;4.50;;;7.50;99.90;;;;;;5063094;28;20234;-48
2022/04/19 02:06:49;;;;;;;9.98;3.88;;;7.40;99.90;;;;;;5062753;28;20350;-53
2022/04/19 02:09:16;;;;;;;8.95;5.53;;;7.40;99.90;;;;;;5062732;28;20230;-49
2022/04/19 02:11:43;;;;;;;6.65;4.72;;;7.40;99.90;;;;;;5062458;28;20195;-51
2022/04/19 02:14:11;;;;;;;4.95;4.13;;;7.40;99.90;;;;;;5062870;28;20506;-47
2022/04/19 02:16:38;;;;;;;7.60;4.30;;;7.50;99.90;;;;;;5062323;28;20202;-51
2022/04/19 02:19:05;;;;;;;10.50;5.43;;;7.40;99.90;;;;;;5062854;28;20219;-51
2022/04/19 02:21:32;;;;;;;5.47;4.45;;;7.40;99.90;;;;;;5062798;28;20300;-54
2022/04/19 02:23:59;;;;;;;7.35;4.13;;;7.30;99.90;;;;;;5062892;28;20207;-49
2022/04/19 02:26:26;;;;;;;4.43;3.25;;;7.30;99.90;;;;;;5062778;28;20306;-51
2022/04/19 02:28:53;;;;;;;6.22;4.32;;;7.30;99.90;;;;;;5063918;28;20291;-48
2022/04/19 02:31:21;;;;;;;6.38;3.85;;;7.20;99.90;;;;;;5063267;28;20430;-54
2022/04/19 02:33:48;;;;;;;6.00;3.72;;;7.20;99.90;;;;;;5062839;28;20386;-48
2022/04/19 02:36:15;;;;;;;5.30;3.42;;;7.20;99.90;;;;;;5061813;28;20211;-51
2022/04/19 02:38:45;;;;;;;9.60;5.10;;;7.10;99.90;;;;;;5061880;28;20238;-50
2022/04/19 02:41:13;;;;;;;7.82;4.35;;;7.10;99.90;;;;;;5061822;28;20616;-50
2022/04/19 02:43:40;;;;;;;6.55;4.20;;;7.00;99.90;;;;;;5061738;28;20503;-49
2022/04/19 02:46:07;;;;;;;4.15;3.45;;;7.00;99.90;;;;;;5061389;28;20226;-47
2022/04/19 02:48:34;;;;;;;5.97;3.60;;;7.00;99.90;;;;;;5061701;28;20215;-49
2022/04/19 02:51:02;;;;;;;7.60;3.60;;;7.00;99.90;;;;;;5062741;28;20436;-47
2022/04/19 02:53:29;;;;;;;5.85;3.78;;;7.00;99.90;;;;;;5061797;28;20207;-50
2022/04/19 02:55:56;;;;;;;8.45;4.65;;;7.00;99.90;;;;;;5064792;28;20199;-50
2022/04/19 02:58:25;;;;;;;5.53;4.00;;;7.00;99.90;;;;;;5072239;28;20220;-48
2022/04/19 03:00:52;;;;;;;7.75;4.70;;;6.90;99.90;;;;;;5066415;28;20557;-52
2022/04/19 03:03:19;;;;;;;5.53;3.10;;;6.90;99.90;;;;;;5061584;28;20347;-51
2022/04/19 03:05:48;;;;;;;7.57;3.97;;;6.70;99.90;;;;;;5061337;28;20856;-50
2022/04/19 03:08:15;;;;;;;5.03;3.45;;;6.60;99.90;;;;;;5061127;28;20261;-52
2022/04/19 03:10:42;;;;;;;4.50;3.60;;;6.60;99.90;;;;;;5061191;28;20195;-51
2022/04/19 03:13:09;;;;;;;5.00;3.42;;;6.50;99.90;;;;;;5061003;28;20195;-49
2022/04/19 03:15:38;;;;;;;5.38;4.05;;;6.50;99.90;;;;;;5061247;28;20514;-48
2022/04/19 03:18:05;;;;;;;7.50;4.25;;;6.50;99.90;;;;;;5061360;28;20534;-47
2022/04/19 03:20:33;;;;;;;7.40;3.90;;;6.40;99.90;;;;;;5061215;28;20199;-49
2022/04/19 03:28:32;;;;;;;7.63;3.58;;;6.40;99.90;;;;;;5061149;28;20526;-50
2022/04/19 03:31:01;;;;;;;14.27;3.75;;;6.40;99.90;;;;;;5044823;28;20502;-49
2022/04/19 03:33:28;;;;;;;4.68;4.07;;;6.40;99.90;;;;;;5042700;28;20246;-49
2022/04/19 03:35:59;;;;;;;4.03;3.55;;;6.40;99.90;;;;;;5058500;28;20252;-47
2022/04/19 03:38:26;;;;;;;6.35;3.58;;;6.30;99.90;;;;;;5044673;28;20220;-50
2022/04/19 03:40:53;;;;;;;4.05;3.33;;;6.30;99.90;;;;;;5043286;28;20205;-46
2022/04/19 03:43:25;;;;;;;6.88;3.63;;;6.30;99.90;;;;;;5043959;28;20510;-47
2022/04/19 03:45:52;;;;;;;5.00;3.38;;;6.30;99.90;;;;;;5055770;28;20215;-49
2022/04/19 03:48:20;;;;;;;3.90;3.55;;;6.30;99.90;;;;;;5048057;28;20222;-49
2022/04/19 03:50:47;;;;;;;5.78;3.83;;;6.20;99.90;;;;;;5045942;28;20195;-50
2022/04/19 03:53:14;;;;;;;5.47;3.10;;;6.10;99.90;;;;;;5047448;28;20513;-51
2022/04/19 03:55:41;;;;;;;5.53;3.88;;;6.10;99.90;;;;;;5050897;28;20334;-47
2022/04/19 03:58:09;;;;;;;5.72;4.00;;;6.10;99.90;;;;;;5020380;28;20225;-52
2022/04/19 04:00:36;;;;;;;6.05;3.97;;;6.10;99.90;;;;;;5038734;28;20365;-52
2022/04/19 04:03:04;;;;;;;4.32;3.83;;;6.00;99.90;;;;;;5030903;28;20508;-50
2022/04/19 04:05:32;;;;;;;4.28;3.17;;;6.00;99.90;;;;;;5029219;28;20204;-51
2022/04/19 04:07:59;;;;;;;5.55;3.42;;;6.00;99.90;;;;;;5030396;28;20352;-48
2022/04/19 04:10:27;;;;;;;3.72;2.85;;;6.00;99.90;;;;;;5030148;28;20207;-48
2022/04/19 04:12:54;;;;;;;5.25;3.25;;;6.00;99.90;;;;;;5029759;28;20279;-50
2022/04/19 04:15:21;;;;;;;3.78;3.33;;;6.00;99.90;;;;;;5032038;28;20249;-50
2022/04/19 04:17:48;;;;;;;5.65;3.67;;;6.10;99.90;;;;;;5028443;28;20237;-53
2022/04/19 04:20:16;;;;;;;3.70;3.20;;;6.00;99.90;;;;;;5031990;28;20204;-49
2022/04/19 04:22:43;;;;;;;4.35;3.50;;;5.90;99.90;;;;;;5028635;28;20205;-47
2022/04/19 04:25:15;;;;;;;3.50;3.00;;;5.90;99.90;;;;;;5035089;28;20213;-50
2022/04/19 04:27:42;;;;;;;6.28;3.42;;;5.90;99.90;;;;;;5028345;28;20242;-48
2022/04/19 04:30:10;;;;;;;5.05;2.92;;;5.90;99.90;;;;;;5032962;28;20201;-47
2022/04/19 04:32:37;;;;;;;3.85;3.20;;;5.90;99.90;;;;;;5028193;28;20215;-50
2022/04/19 04:35:05;;;;;;;10.50;3.17;;;5.90;99.90;;;;;;5031303;28;20431;-47
2022/04/19 04:37:33;;;;;;;8.23;3.60;;;5.90;99.90;;;;;;5028324;28;20320;-50
2022/04/19 04:40:00;;;;;;;7.90;3.33;;;5.90;99.90;;;;;;5029746;28;20482;-48
2022/04/19 04:42:28;;;;;;;5.60;3.30;;;5.90;99.90;;;;;;5028877;28;20202;-50
2022/04/19 04:44:55;;;;;;;4.40;3.45;;;5.90;99.90;;;;;;5028588;28;20582;-48
2022/04/19 04:50:09;;;;;;;5.25;3.95;;;5.90;99.90;;;;;;5031969;28;20201;-48
2022/04/19 04:52:37;;;;;;;3.72;3.05;;;5.90;99.90;;;;;;5027455;28;20226;-48
2022/04/19 04:55:05;;;;;;;4.05;2.88;;;6.00;99.90;;;;;;5030503;28;20504;-50
2022/04/19 04:57:32;;;;;;;4.55;3.28;;;6.00;99.90;;;;;;5028523;28;20205;-48
2022/04/19 04:59:59;;;;;;;7.55;4.13;;;6.00;99.90;;;;;;5029613;28;20299;-51
2022/04/19 05:02:26;;;;;;;4.40;3.50;;;5.90;99.90;;;;;;5029636;28;20528;-50
2022/04/19 05:04:53;;;;;;;3.60;3.30;;;5.90;99.90;;;;;;5027853;28;20254;-50
2022/04/19 05:07:20;;;;;;;6.03;3.08;;;6.00;99.90;;;;;;5031628;28;20242;-50
2022/04/19 05:09:56;;;;;;;5.55;3.00;;;6.10;99.90;;;;;;5027492;28;20292;-48
2022/04/19 05:12:23;;;;;;;5.78;3.67;;;6.20;99.90;;;;;;5030195;28;20376;-49
2022/04/19 05:14:51;;;;;;;7.22;3.88;;;6.30;99.90;;;;;;5027114;28;20234;-47
2022/04/19 05:17:18;;;;;;;3.58;2.58;;;6.40;99.90;;;;;;5029007;28;20607;-47
2022/04/19 05:19:45;;;;;;;4.60;3.53;;;6.40;99.90;;;;;;5035352;28;20228;-50
2022/04/19 05:22:12;;;;;;;4.22;2.80;;;6.40;99.90;;;;;;5033829;28;20212;-48
2022/04/19 05:24:39;;;;;;;4.90;3.45;;;6.30;99.90;;;;;;5032525;28;20218;-48
2022/04/19 05:27:07;;;;;;;4.88;2.92;;;6.20;99.90;;;;;;5033312;28;20303;-47
2022/04/19 05:29:34;;;;;;;3.45;3.17;;;6.20;99.90;;;;;;5027631;28;20329;-47
2022/04/19 05:32:01;;;;;;;2.88;2.33;;;6.40;99.90;;;;;;5029768;28;20380;-47
2022/04/19 05:34:28;;;;;;;5.95;3.05;;;6.40;99.90;;;;;;5025000;28;20195;-50
2022/04/19 05:36:56;;;;;;;5.43;3.90;;;6.60;99.90;;;;;;5028445;28;20510;-49
2022/04/19 05:39:23;;;;;;;4.78;3.55;;;6.80;99.90;;;;;;5030467;28;20219;-47
2022/04/19 05:41:50;;;;;;;3.95;3.00;;;6.90;99.90;;;;;;5029354;28;20236;-52
2022/04/19 05:44:17;;;;;;;5.30;4.50;;;6.80;99.90;;;;;;5034737;28;20199;-49
2022/04/19 05:46:44;;;;;;;10.60;3.30;;;6.40;99.90;;;;;;5030029;28;20231;-50
2022/04/19 05:49:13;;;;;;;4.15;2.88;;;6.20;99.90;;;;;;5031671;28;20230;-51
2022/04/19 05:51:42;;;;;;;5.50;3.60;;;6.20;99.90;;;;;;5028258;28;20201;-47
2022/04/19 05:54:09;;;;;;;4.10;3.55;;;6.10;99.90;;;;;;5032924;28;20391;-49
2022/04/19 05:56:36;;;;;;;6.50;3.50;;;5.80;99.90;;;;;;5027324;28;20283;-49
2022/04/19 05:59:03;;;;;;;4.55;3.42;;;5.40;99.90;;;;;;5030618;28;20274;-47
2022/04/19 06:04:51;;;;;;;5.55;4.03;;;4.80;99.90;;;;;;5024256;28;20510;-44
2022/04/19 06:07:04;;;;;;;4.47;4.05;;;4.50;99.90;;;;;;5034939;28;20385;-47
2022/04/19 06:09:31;;;;;;;5.22;3.65;;;4.90;99.90;;;;;;5031622;28;20240;-44
2022/04/19 06:12:00;;;;;;;3.63;2.88;;;5.20;99.90;;;;;;5034737;28;20223;-46
2022/04/19 06:14:28;;;;;;;4.00;2.55;;;5.40;99.90;;;;;;5031718;28;20200;-45
2022/04/19 06:16:55;;;;;;;4.03;2.95;;;5.50;99.90;;;;;;5033445;28;20212;-43
2022/04/19 06:19:22;;;;;;;4.00;3.63;;;5.70;99.90;;;;;;5031673;28;20261;-48
2022/04/19 06:21:50;;;;;;;4.05;3.30;;;6.10;99.90;;;;;;5028450;28;20216;-49
2022/04/19 06:24:17;;;;;;;2.88;2.67;;;6.50;99.90;;;;;;5036392;28;20203;-49
2022/04/19 06:26:48;;;;;;;4.32;3.88;;;7.10;99.90;;;;;;5029753;28;20228;-48
2022/04/19 06:29:15;;;;;;;4.13;3.00;;;8.00;99.90;;;;;;5032163;28;20223;-48
2022/04/19 06:31:43;;;;;;;3.83;2.50;;;8.90;99.90;;;;;;5030929;28;20243;-46
2022/04/19 06:34:11;;;;;;;3.78;3.00;;;9.60;99.90;;;;;;5047553;28;20276;-46
2022/04/19 06:36:39;;;;;;;2.42;2.22;;;10.30;99.90;;;;;;5028333;28;20201;-48
2022/04/19 06:39:06;;;;;;;3.95;2.80;;;11.20;99.90;;;;;;5039056;28;20228;-48
2022/04/19 06:41:34;;;;;;;2.20;2.00;;;11.60;99.90;;;;;;5034519;28;20204;-48
2022/04/19 06:44:01;;;;;;;2.85;2.08;;;12.00;99.90;;;;;;5034496;28;20215;-47
2022/04/19 06:46:29;;;;;;;2.83;2.63;;;11.40;99.90;;;;;;5032766;28;20235;-50
2022/04/19 06:48:58;;;;;;;6.18;3.13;;;11.00;99.90;;;;;;5034587;28;20224;-47
2022/04/19 06:51:26;;;;;;;4.70;3.10;;;10.90;99.90;;;;;;5033655;28;20404;-50
2022/04/19 06:54:00;;;;;;;3.67;2.55;;;10.70;99.90;;;;;;5032770;28;20211;-53
2022/04/19 06:56:27;;;;;;;4.07;3.30;;;11.20;99.90;;;;;;5035325;28;20202;-50
2022/04/19 06:58:54;;;;;;;6.50;3.97;;;11.20;99.90;;;;;;5034311;28;20232;-50
2022/04/19 07:01:23;;;;;;;7.50;5.22;;;10.00;99.90;;;;;;5034606;28;20199;-49
2022/04/19 07:03:54;;;;;;;4.45;3.65;;;9.20;99.90;;;;;;5030987;28;20261;-51
2022/04/19 07:06:21;;;;;;;3.63;3.20;;;8.80;99.90;;;;;;5029890;28;20262;-51
2022/04/19 07:08:49;;;;;;;5.72;4.35;;;8.60;99.90;;;;;;5030338;28;20587;-51
2022/04/19 07:11:16;;;;;;;6.15;4.55;;;8.50;99.90;;;;;;5035616;28;20275;-53
2022/04/19 07:13:43;;;;;;;3.47;3.03;;;8.30;99.90;;;;;;5030217;28;20204;-50
2022/04/19 07:16:10;;;;;;;4.43;3.70;;;8.10;99.90;;;;;;5035688;28;20204;-46
2022/04/19 07:18:38;;;;;;;4.07;3.28;;;7.90;99.90;;;;;;5030216;28;20221;-48
2022/04/19 07:26:37;;;;;;;12.57;11.48;;;7.50;99.90;;;;;;5030593;28;20271;-52
2022/04/19 07:29:05;;;;;;;7.50;6.80;;;7.60;99.90;;;;;;5033297;28;20218;-55
2022/04/19 07:31:33;;;;;;;5.55;4.40;;;10.00;99.90;;;;;;5026396;28;20203;-51
2022/04/19 07:34:03;;;;;;;3.80;3.38;;;10.40;99.90;;;;;;5042343;28;20207;-51
2022/04/19 07:36:30;;;;;;;4.97;3.20;;;10.70;99.90;;;;;;5020541;28;20199;-52
2022/04/19 07:38:58;;;;;;;5.32;3.55;;;11.70;99.90;;;;;;5021470;28;20219;-48
2022/04/19 07:41:26;;;;;;;3.60;3.17;;;11.30;99.90;;;;;;5020780;28;20199;-47
2022/04/19 07:43:53;;;;;;;4.20;3.75;;;10.20;99.90;;;;;;5021039;28;20483;-51
2022/04/19 07:46:20;;;;;;;5.43;3.50;;;9.40;99.90;;;;;;5020137;28;20210;-48
2022/04/19 07:48:48;;;;;;;5.50;4.60;;;8.60;99.90;;;;;;5020967;28;20217;-52
2022/04/19 07:51:19;;;;;;;5.40;4.35;;;8.20;99.90;;;;;;5020522;28;20205;-48
2022/04/19 07:53:46;;;;;;;5.85;5.00;;;8.10;99.90;;;;;;5019586;28;20205;-48
2022/04/19 07:56:17;;;;;;;8.15;5.68;;;8.20;99.90;;;;;;5021892;28;20196;-52
2022/04/19 07:58:47;;;;;;;7.10;4.38;;;8.30;99.90;;;;;;5040428;28;20446;-48
2022/04/19 08:01:23;;;;;;;7.13;6.43;;;8.50;99.90;;;;;;5040830;28;20220;-51
2022/04/19 08:03:50;;;;;;;6.90;4.93;;;9.20;99.90;;;;;;5042404;28;20204;-52
2022/04/19 08:06:22;;;;;;;4.40;4.00;;;10.20;99.90;;;;;;5041020;28;20222;-51
2022/04/19 08:08:49;;;;;;;4.45;3.95;;;11.10;99.90;;;;;;5040338;28;20313;-49
2022/04/19 08:11:16;;;;;;;5.80;5.30;;;11.80;99.90;;;;;;5040354;28;20399;-50
2022/04/19 08:13:43;;;;;;;10.45;7.80;;;10.80;99.90;;;;;;5040114;28;20536;-48
2022/04/19 08:16:11;;;;;;;11.18;7.28;;;9.90;99.90;;;;;;5040409;28;20241;-50
2022/04/19 08:18:38;;;;;;;7.55;4.90;;;9.40;99.90;;;;;;5039820;28;20241;-50
2022/04/19 08:21:06;;;;;;;6.85;5.78;;;8.50;99.90;;;;;;5038606;28;20198;-48
2022/04/19 08:23:33;;;;;;;10.00;8.73;;;8.20;99.90;;;;;;5039575;28;20208;-51
2022/04/19 08:26:01;;;;;;;9.10;6.93;;;8.10;99.90;;;;;;5040221;28;20674;-49
2022/04/19 08:28:32;;;;;;;10.45;9.45;;;8.00;99.90;;;;;;5043018;28;20224;-55
2022/04/19 08:31:00;;;;;;;7.78;6.82;;;7.70;99.90;;;;;;5048165;28;20271;-51
2022/04/19 08:33:28;;;;;;;12.00;9.23;;;7.70;99.90;;;;;;5040066;28;20264;-50
2022/04/19 08:35:55;;;;;;;6.90;5.57;;;7.70;99.90;;;;;;5039821;28;20197;-61
2022/04/19 08:38:22;;;;;;;5.13;4.63;;;7.60;99.90;;;;;;5037242;28;20738;-51
2022/04/19 08:40:50;;;;;;;5.38;4.80;;;7.90;99.90;;;;;;5055968;28;20256;-52
2022/04/19 08:43:17;;;;;;;12.40;6.07;;;7.90;99.90;;;;;;5059043;28;20269;-50
2022/04/19 08:45:45;;;;;;;7.07;6.35;;;7.90;99.90;;;;;;5059053;28;20269;-53
2022/04/19 08:48:15;;;;;;;6.90;5.47;;;8.40;99.90;;;;;;5058500;28;20236;-49
2022/04/19 08:50:46;;;;;;;9.18;6.07;;;8.60;99.90;;;;;;5055897;28;20196;-49
2022/04/19 08:58:48;;;;;;;6.28;5.68;;;8.80;99.90;;;;;;5019872;28;20233;-48
2022/04/19 09:01:15;;;;;;;4.82;4.50;;;8.50;99.90;;;;;;5038583;28;20341;-49
2022/04/19 09:03:47;;;;;;;6.32;5.68;;;8.40;99.90;;;;;;5031499;28;20208;-49
2022/04/19 09:06:16;;;;;;;5.80;5.30;;;8.40;99.90;;;;;;5042207;28;20280;-50
2022/04/19 09:09:12;;;;;;;7.00;5.35;;;8.20;99.90;;;;;;5043760;28;20232;-49
2022/04/19 09:11:43;;;;;;;8.50;4.93;;;8.10;99.90;;;;;;5046583;28;20198;-48
2022/04/19 09:14:10;;;;;;;4.72;4.28;;;7.80;99.90;;;;;;5039860;28;20223;-47
2022/04/19 09:16:38;;;;;;;6.20;5.18;;;7.80;99.90;;;;;;5039209;28;20372;-51
2022/04/19 09:19:16;;;;;;;6.60;5.90;;;7.60;99.90;;;;;;5050688;28;20227;-51
2022/04/19 09:21:44;;;;;;;6.15;5.13;;;7.70;99.90;;;;;;5058859;28;20199;-50
2022/04/19 09:24:19;;;;;;;5.50;5.00;;;8.00;99.90;;;;;;5058281;28;20315;-49
2022/04/19 09:26:50;;;;;;;6.53;5.00;;;8.20;99.90;;;;;;5018318;28;20231;-49
2022/04/19 09:29:22;;;;;;;5.30;4.80;;;8.40;99.90;;;;;;5038254;28;20220;-55
2022/04/19 09:31:57;;;;;;;6.20;4.25;;;8.90;99.90;;;;;;5039077;28;20235;-50
2022/04/19 09:34:33;;;;;;;5.68;4.57;;;9.20;99.90;;;;;;5038447;28;20273;-49
2022/04/19 09:37:08;;;;;;;4.32;3.92;;;8.90;99.90;;;;;;5037686;28;20446;-51
2022/04/19 09:39:37;;;;;;;5.50;4.70;;;8.30;99.90;;;;;;5032860;28;20223;-51
2022/04/19 09:42:10;;;;;;;4.80;4.40;;;8.20;99.90;;;;;;5034916;28;20499;-50
2022/04/19 09:44:44;;;;;;;4.10;3.70;;;8.20;99.90;;;;;;5030069;28;20213;-49
2022/04/19 09:47:13;;;;;;;4.95;4.28;;;8.20;99.90;;;;;;5042238;28;20225;-48
2022/04/19 09:49:44;;;;;;;4.35;3.95;;;8.30;99.90;;;;;;5037578;28;20380;-48
2022/04/19 09:52:21;;;;;;;2.45;2.25;;;8.60;99.90;;;;;;5033234;28;20205;-46
2022/04/19 09:55:08;;;;;;;3.35;3.03;;;8.40;99.90;;;;;;5032739;28;20271;-51
2022/04/19 09:57:38;;;;;;;4.43;4.10;;;8.40;99.90;;;;;;5018771;28;20526;-48
2022/04/19 10:00:14;;;;;;;4.28;3.88;;;8.10;99.90;;;;;;5023240;28;20512;-48
2022/04/19 10:08:21;;;;;;;5.15;4.65;;;9.40;99.90;;;;;;5042776;28;20288;-50
2022/04/19 10:10:50;;;;;;;4.72;4.20;;;9.00;99.90;;;;;;5040405;28;20263;-48
2022/04/19 10:13:23;;;;;;;5.38;4.88;;;8.90;99.90;;;;;;5038662;28;20202;-49
2022/04/19 10:15:51;;;;;;;6.25;4.35;;;8.70;99.90;;;;;;5039100;28;20215;-47
2022/04/19 10:18:19;;;;;;;4.25;3.95;;;8.70;99.90;;;;;;5039576;28;20254;-52
2022/04/19 10:20:58;;;;;;;5.65;5.15;;;8.60;99.90;;;;;;5038990;28;20238;-48
2022/04/19 10:23:36;;;;;;;3.85;3.55;;;8.80;99.90;;;;;;5041454;28;20200;-48
2022/04/19 10:26:19;;;;;;;5.03;4.53;;;8.80;99.90;;;;;;5030171;28;20392;-47
2022/04/19 10:28:49;;;;;;;4.00;3.70;;;8.60;99.90;;;;;;5049004;28;20228;-49
2022/04/19 10:31:35;;;;;;;4.07;3.72;;;8.70;99.90;;;;;;5035958;28;20247;-51
2022/04/19 10:34:06;;;;;;;4.65;4.15;;;8.90;99.90;;;;;;5038745;28;20261;-48
2022/04/19 10:36:33;;;;;;;4.25;3.85;;;8.20;99.90;;;;;;5052005;28;20387;-48
2022/04/19 10:39:15;;;;;;;2.92;2.35;;;8.30;99.90;;;;;;5061647;28;20226;-50
2022/04/19 10:41:49;;;;;;;3.90;3.50;;;8.00;99.90;;;;;;5062032;28;20433;-47
2022/04/19 10:44:26;;;;;;;4.78;4.28;;;8.30;99.90;;;;;;5062062;28;20208;-48
2022/04/19 10:47:33;;;;;;;3.50;3.20;;;8.20;99.90;;;;;;5061932;28;20428;-51
2022/04/19 10:50:07;;;;;;;3.83;3.53;;;8.50;99.90;;;;;;5059157;28;20222;-47
2022/04/19 10:52:38;;;;;;;2.95;2.75;;;8.80;99.90;;;;;;5062047;28;20430;-49
2022/04/19 10:55:23;;;;;;;5.32;4.82;;;9.50;99.90;;;;;;5060520;28;20267;-50
2022/04/19 10:58:17;;;;;;;5.43;4.93;;;9.00;99.90;;;;;;5061735;28;20246;-48
2022/04/19 11:00:51;;;;;;;5.18;4.45;;;9.10;99.90;;;;;;5049054;28;20208;-49
2022/04/19 11:03:29;;;;;;;6.45;4.47;;;8.50;99.90;;;;;;5041684;28;20250;-50
2022/04/19 11:05:58;;;;;;;5.60;5.10;;;8.70;99.90;;;;;;5041502;28;20437;-49
2022/04/19 11:08:25;;;;;;;5.25;4.85;;;8.90;99.90;;;;;;5041298;28;20505;-50
2022/04/19 11:11:20;;;;;;;5.13;4.63;;;9.00;99.90;;;;;;5041297;28;20253;-50
2022/04/19 11:14:21;;;;;;;5.15;4.65;;;9.20;99.90;;;;;;5042028;28;20448;-49
2022/04/19 11:16:51;;;;;;;6.57;5.32;;;9.70;99.90;;;;;;5046767;28;20198;-52
2022/04/19 11:19:20;;;;;;;6.25;5.65;;;10.10;99.90;;;;;;5047278;28;20225;-52
2022/04/19 11:21:59;;;;;;;5.78;5.38;;;10.00;99.90;;;;;;5040736;28;20426;-51
2022/04/19 11:25:00;;;;;;;5.93;5.43;;;9.60;99.90;;;;;;5041331;28;20202;-50
2022/04/19 11:27:51;;;;;;;5.65;5.13;;;9.50;99.90;;;;;;5040994;28;20210;-50
2022/04/19 11:30:23;;;;;;;6.13;5.53;;;9.40;99.90;;;;;;5041651;28;20264;-50
2022/04/19 11:32:52;;;;;;;9.55;6.90;;;9.00;99.90;;;;;;5042062;28;20528;-48
2022/04/19 11:35:20;;;;;;;6.13;4.82;;;9.30;99.90;;;;;;5042189;28;20278;-49
2022/04/19 11:37:48;;;;;;;6.15;5.63;;;9.20;99.90;;;;;;5041048;28;20404;-49
2022/04/19 11:48:49;;;;;;;7.55;6.95;;;9.90;99.90;;;;;;5040167;28;20220;-47
2022/04/19 11:51:19;;;;;;;6.78;5.50;;;9.70;99.90;;;;;;5040909;28;20202;-48
2022/04/19 11:53:50;;;;;;;6.20;5.63;;;9.70;99.90;;;;;;5039968;28;20201;-46
2022/04/19 11:56:17;;;;;;;5.72;4.30;;;9.20;99.90;;;;;;5042260;28;20232;-48
2022/04/19 11:58:49;;;;;;;6.82;5.93;;;9.10;99.90;;;;;;5055677;28;20295;-49
2022/04/19 12:01:16;;;;;;;7.05;6.35;;;9.20;99.90;;;;;;5043341;28;20224;-48
2022/04/19 12:03:43;;;;;;;6.22;5.63;;;9.30;99.90;;;;;;5040245;28;20304;-51
2022/04/19 12:06:14;;;;;;;7.35;6.15;;;9.40;99.90;;;;;;5039889;28;20264;-50
2022/04/19 12:08:55;;;;;;;7.07;5.68;;;9.40;99.90;;;;;;5040451;28;20268;-50
2022/04/19 12:11:28;;;;;;;6.10;5.50;;;9.60;99.90;;;;;;5039974;28;20205;-50
2022/04/19 12:13:56;;;;;;;8.00;7.10;;;9.60;99.90;;;;;;5040718;28;20201;-49
2022/04/19 12:16:29;;;;;;;6.35;5.38;;;10.00;99.90;;;;;;5039987;28;20190;-51
2022/04/19 12:19:02;;;;;;;6.82;5.70;;;9.90;99.90;;;;;;5040781;28;20237;-51
2022/04/19 12:21:46;;;;;;;7.07;6.40;;;9.30;99.90;;;;;;5040003;28;20201;-48
2022/04/19 12:24:23;;;;;;;5.45;4.95;;;8.90;99.90;;;;;;5039976;28;20202;-49
2022/04/19 12:26:52;;;;;;;7.22;6.53;;;9.00;99.90;;;;;;5042034;28;20503;-52
2022/04/19 12:29:19;;;;;;;6.18;5.68;;;8.80;99.90;;;;;;5040120;28;20440;-49
2022/04/19 12:31:56;;;;;;;7.85;6.60;;;9.10;99.90;;;;;;5041746;28;20530;-49
2022/04/19 12:34:39;;;;;;;8.05;6.03;;;9.20;99.90;;;;;;5039568;28;20197;-49
2022/04/19 12:37:12;;;;;;;9.52;7.28;;;9.40;99.90;;;;;;5039871;28;20206;-53
2022/04/19 12:39:41;;;;;;;7.35;6.65;;;9.50;99.90;;;;;;5038901;28;20288;-50
2022/04/19 12:42:11;;;;;;;7.22;6.53;;;9.70;99.90;;;;;;5039228;28;20220;-51
2022/04/19 12:44:40;;;;;;;6.78;6.18;;;10.00;99.90;;;;;;5040076;28;20203;-49
2022/04/19 12:47:14;;;;;;;7.50;5.45;;;10.30;99.90;;;;;;5039738;28;20586;-50
2022/04/19 12:49:47;;;;;;;5.88;5.38;;;10.40;99.90;;;;;;5039799;28;20230;-52
2022/04/19 12:52:15;;;;;;;7.15;6.55;;;10.10;99.90;;;;;;5039726;28;20266;-49
2022/04/19 12:54:45;;;;;;;6.75;6.10;;;10.10;99.90;;;;;;5040063;28;20208;-49
2022/04/19 13:00:38;;;;;;;6.05;5.53;;;10.30;99.90;;;;;;5028148;28;20207;-50
2022/04/19 13:03:06;;;;;;;6.95;6.25;;;10.50;99.90;;;;;;5019284;28;20258;-50
2022/04/19 13:13:54;;;;;;;6.18;5.43;;;10.20;99.90;;;;;;5018976;28;20239;-50
2022/04/19 13:16:21;;;;;;;6.85;6.25;;;10.00;99.90;;;;;;5019268;28;20207;-52
2022/04/19 13:18:49;;;;;;;7.00;5.88;;;10.10;99.90;;;;;;5019348;28;20224;-52
2022/04/19 13:21:16;;;;;;;8.27;6.28;;;10.50;99.90;;;;;;5019252;28;20249;-50
2022/04/19 13:23:44;;;;;;;8.50;5.85;;;10.60;99.90;;;;;;5019680;28;20238;-49
2022/04/19 13:26:12;;;;;;;6.40;5.80;;;10.70;99.90;;;;;;5018489;28;20494;-51
2022/04/19 13:28:39;;;;;;;7.28;6.50;;;10.30;99.90;;;;;;5019500;28;20258;-50
2022/04/19 13:31:07;;;;;;;5.55;5.05;;;10.10;99.90;;;;;;5018820;28;20235;-48
2022/04/19 13:33:40;;;;;;;9.63;6.25;;;9.90;99.90;;;;;;5019083;28;20199;-52
2022/04/19 13:36:07;;;;;;;6.85;6.15;;;9.90;99.90;;;;;;5029792;28;20278;-48
2022/04/19 13:38:38;;;;;;;7.05;6.45;;;10.20;99.90;;;;;;5054919;28;20582;-47
2022/04/19 13:41:05;;;;;;;6.60;5.97;;;10.50;99.90;;;;;;5022244;28;20363;-51
2022/04/19 13:43:33;;;;;;;6.82;6.22;;;10.50;99.90;;;;;;5019160;28;20529;-49
2022/04/19 13:46:01;;;;;;;7.80;6.05;;;10.40;99.90;;;;;;5019812;28;20203;-49
2022/04/19 13:48:29;;;;;;;7.20;6.47;;;10.40;99.90;;;;;;5021844;28;20241;-49
2022/04/19 13:50:56;;;;;;;5.90;5.40;;;10.40;99.90;;;;;;5052222;28;20265;-51
2022/04/19 13:53:24;;;;;;;7.63;6.28;;;10.20;99.90;;;;;;5023336;28;20462;-52
2022/04/19 13:55:52;;;;;;;7.35;6.65;;;10.30;99.90;;;;;;5024390;28;20507;-50
2022/04/19 13:58:19;;;;;;;6.90;6.22;;;10.40;99.90;;;;;;5038910;28;20222;-51
2022/04/19 14:00:47;;;;;;;9.45;7.95;;;10.50;99.90;;;;;;5041129;28;20431;-50
2022/04/19 14:03:14;;;;;;;6.93;6.28;;;10.80;99.90;;;;;;5039603;28;20402;-47